createdAt,value
2023-05-10T00:00:51.860Z,100.00
2023-05-10T00:03:18.411Z,100.00
2023-05-10T00:05:58.523Z,100.00
2023-05-10T00:08:24.987Z,100.00
2023-05-10T00:10:51.583Z,100.00
2023-05-10T00:13:20.355Z,100.00
2023-05-10T00:15:47.090Z,100.00
2023-05-10T00:18:13.595Z,100.00
2023-05-10T00:20:40.181Z,100.00
2023-05-10T00:23:06.648Z,100.00
2023-05-10T00:25:33.197Z,100.00
2023-05-10T00:28:02.402Z,100.00
2023-05-10T00:30:29.124Z,100.00
2023-05-10T00:32:55.693Z,100.00
2023-05-10T00:35:24.458Z,100.00
2023-05-10T00:37:54.401Z,100.00
2023-05-10T00:40:21.795Z,100.00
2023-05-10T00:42:48.897Z,100.00
2023-05-10T00:45:15.445Z,100.00
2023-05-10T00:47:42.048Z,100.00
2023-05-10T00:50:17.672Z,100.00
2023-05-10T00:52:44.284Z,100.00
2023-05-10T00:55:12.486Z,100.00
2023-05-10T00:57:39.673Z,100.00
2023-05-10T01:00:06.969Z,100.00
2023-05-10T01:02:36.352Z,100.00
2023-05-10T01:05:06.458Z,100.00
2023-05-10T01:07:34.715Z,100.00
2023-05-10T01:10:01.303Z,100.00
2023-05-10T01:12:28.274Z,100.00
2023-05-10T01:14:55.868Z,100.00
2023-05-10T01:17:23.881Z,100.00
2023-05-10T01:19:51.005Z,100.00
2023-05-10T01:22:32.522Z,100.00
2023-05-10T01:25:19.688Z,100.00
2023-05-10T01:28:32.580Z,100.00
2023-05-10T01:31:32.533Z,100.00
2023-05-10T01:34:13.339Z,100.00
2023-05-10T01:37:06.705Z,100.00
2023-05-10T01:39:40.432Z,100.00
2023-05-10T01:42:14.285Z,100.00
2023-05-10T01:45:31.898Z,100.00
2023-05-10T01:48:08.653Z,100.00
2023-05-10T01:50:37.566Z,100.00
2023-05-10T01:53:08.229Z,100.00
2023-05-10T01:55:41.226Z,100.00
2023-05-10T01:58:11.113Z,100.00
2023-05-10T02:00:41.619Z,100.00
2023-05-10T02:03:13.548Z,100.00
2023-05-10T02:05:42.371Z,100.00
2023-05-10T02:08:10.289Z,100.00
2023-05-10T02:10:37.827Z,100.00
2023-05-10T02:13:07.146Z,100.00
2023-05-10T02:15:35.112Z,100.00
2023-05-10T02:18:06.332Z,100.00
2023-05-10T02:20:34.262Z,100.00
2023-05-10T02:23:02.027Z,100.00
2023-05-10T02:25:31.046Z,100.00
2023-05-10T02:28:00.677Z,100.00
2023-05-10T02:30:27.794Z,100.00
2023-05-10T02:33:01.672Z,100.00
2023-05-10T02:35:29.161Z,100.00
2023-05-10T02:37:56.079Z,100.00
2023-05-10T02:40:23.985Z,100.00
2023-05-10T02:42:53.284Z,100.00
2023-05-10T02:45:23.191Z,100.00
2023-05-10T02:47:50.051Z,100.00
2023-05-10T02:50:17.143Z,100.00
2023-05-10T02:52:52.538Z,100.00
2023-05-10T02:55:27.735Z,100.00
2023-05-10T02:58:01.810Z,100.00
2023-05-10T03:00:28.711Z,100.00
2023-05-10T03:02:55.766Z,100.00
2023-05-10T03:05:24.453Z,100.00
2023-05-10T03:07:51.950Z,100.00
2023-05-10T03:10:19.657Z,100.00
2023-05-10T03:13:00.243Z,100.00
2023-05-10T03:15:53.528Z,100.00
2023-05-10T03:18:26.081Z,100.00
2023-05-10T03:21:00.244Z,100.00
2023-05-10T03:23:43.276Z,100.00
2023-05-10T03:26:09.979Z,100.00
2023-05-10T03:28:39.577Z,100.00
2023-05-10T03:31:10.180Z,100.00
2023-05-10T03:33:36.738Z,100.00
2023-05-10T03:36:03.403Z,100.00
2023-05-10T03:38:30.673Z,100.00
2023-05-10T03:40:57.275Z,100.00
2023-05-10T03:43:23.710Z,100.00
2023-05-10T03:45:54.839Z,100.00
2023-05-10T03:48:21.296Z,100.00
2023-05-10T03:50:47.822Z,100.00
2023-05-10T03:53:14.428Z,100.00
2023-05-10T03:55:41.166Z,100.00
2023-05-10T03:58:07.691Z,100.00
2023-05-10T04:00:36.159Z,100.00
2023-05-10T04:03:02.748Z,100.00
2023-05-10T04:05:29.404Z,100.00
2023-05-10T04:08:00.474Z,100.00
2023-05-10T04:10:27.156Z,100.00
2023-05-10T04:12:53.677Z,100.00
2023-05-10T04:15:20.286Z,100.00
2023-05-10T04:17:47.358Z,100.00
2023-05-10T04:20:14.677Z,100.00
2023-05-10T04:22:43.570Z,100.00
2023-05-10T04:25:10.475Z,100.00
2023-05-10T04:27:36.963Z,100.00
2023-05-10T04:30:06.418Z,100.00
2023-05-10T04:32:35.315Z,100.00
2023-05-10T04:35:04.532Z,100.00
2023-05-10T04:37:33.437Z,100.00
2023-05-10T04:40:01.001Z,100.00
2023-05-10T04:42:27.654Z,100.00
2023-05-10T04:45:03.456Z,100.00
2023-05-10T04:47:31.862Z,100.00
2023-05-10T04:49:58.541Z,100.00
2023-05-10T04:52:25.183Z,100.00
2023-05-10T04:54:52.380Z,100.00
2023-05-10T04:57:23.043Z,100.00
2023-05-10T04:59:50.479Z,100.00
2023-05-10T05:02:17.194Z,100.00
2023-05-10T05:04:43.696Z,100.00
2023-05-10T05:07:12.423Z,100.00
2023-05-10T05:09:38.899Z,100.00
2023-05-10T05:12:05.706Z,100.00
2023-05-10T05:14:35.128Z,100.00
2023-05-10T05:17:01.888Z,100.00
2023-05-10T05:19:28.505Z,100.00
2023-05-10T05:21:57.132Z,100.00
2023-05-10T05:24:23.947Z,100.00
2023-05-10T05:26:50.413Z,100.00
2023-05-10T05:29:18.738Z,100.00
2023-05-10T05:31:45.254Z,100.00
2023-05-10T05:34:16.429Z,100.00
2023-05-10T05:36:43.241Z,100.00
2023-05-10T05:39:09.697Z,100.00
2023-05-10T05:41:36.207Z,100.00
2023-05-10T05:44:07.305Z,100.00
2023-05-10T05:46:33.778Z,100.00
2023-05-10T05:49:00.372Z,100.00
2023-05-10T05:51:26.983Z,100.00
2023-05-10T05:53:53.972Z,100.00
2023-05-10T05:56:25.244Z,100.00
2023-05-10T05:58:52.492Z,100.00
2023-05-10T06:01:19.026Z,100.00
2023-05-10T06:03:45.687Z,100.00
2023-05-10T06:06:12.479Z,100.00
2023-05-10T06:08:39.024Z,100.00
2023-05-10T06:11:05.587Z,100.00
2023-05-10T06:13:43.174Z,100.00
2023-05-10T06:16:11.569Z,100.00
2023-05-10T06:18:38.360Z,100.00
2023-05-10T06:21:11.455Z,100.00
2023-05-10T06:23:38.039Z,100.00
2023-05-10T06:26:05.064Z,100.00
2023-05-10T06:28:35.129Z,100.00
2023-05-10T06:31:01.731Z,100.00
2023-05-10T06:33:28.598Z,100.00
2023-05-10T06:35:57.268Z,100.00
2023-05-10T06:38:23.847Z,100.00
2023-05-10T06:40:50.366Z,100.00
2023-05-10T06:43:18.689Z,100.00
2023-05-10T06:45:45.412Z,100.00
2023-05-10T06:48:11.990Z,100.00
2023-05-10T06:50:38.733Z,100.00
2023-05-10T06:53:05.210Z,100.00
2023-05-10T06:55:31.787Z,100.00
2023-05-10T06:58:03.468Z,100.00
2023-05-10T07:00:29.924Z,100.00
2023-05-10T07:02:56.840Z,100.00
2023-05-10T07:05:25.251Z,100.00
2023-05-10T07:07:52.643Z,100.00
2023-05-10T07:10:19.357Z,100.00
2023-05-10T07:12:46.056Z,100.00
2023-05-10T07:15:12.629Z,100.00
2023-05-10T07:17:39.146Z,100.00
2023-05-10T07:20:06.559Z,100.00
2023-05-10T07:22:33.171Z,100.00
2023-05-10T07:24:59.751Z,100.00
2023-05-10T07:27:28.208Z,100.00
2023-05-10T07:29:55.709Z,100.00
2023-05-10T07:32:22.675Z,100.00
2023-05-10T07:34:51.131Z,100.00
2023-05-10T07:37:17.622Z,100.00
2023-05-10T07:39:44.118Z,100.00
2023-05-10T07:42:10.733Z,100.00
2023-05-10T07:44:39.079Z,100.00
2023-05-10T07:47:05.677Z,100.00
2023-05-10T07:49:32.386Z,100.00
2023-05-10T07:51:58.876Z,100.00
2023-05-10T07:54:27.623Z,100.00
2023-05-10T07:56:54.290Z,100.00
2023-05-10T07:59:21.076Z,100.00
2023-05-10T08:01:47.583Z,100.00
2023-05-10T08:04:16.421Z,100.00
2023-05-10T08:06:43.314Z,100.00
2023-05-10T08:09:10.082Z,100.00
2023-05-10T08:11:38.362Z,100.00
2023-05-10T08:14:06.765Z,100.00
2023-05-10T08:16:33.574Z,100.00
2023-05-10T08:19:04.819Z,100.00
2023-05-10T08:21:32.300Z,100.00
2023-05-10T08:23:58.958Z,100.00
2023-05-10T08:26:32.076Z,100.00
2023-05-10T08:28:58.625Z,100.00
2023-05-10T08:31:25.185Z,100.00
2023-05-10T08:33:53.741Z,100.00
2023-05-10T08:36:22.991Z,100.00
2023-05-10T08:38:52.808Z,100.00
2023-05-10T08:41:24.334Z,100.00
2023-05-10T08:43:54.793Z,100.00
2023-05-10T08:46:23.341Z,100.00
2023-05-10T08:49:06.217Z,100.00
2023-05-10T08:51:41.806Z,100.00
2023-05-10T08:54:09.238Z,100.00
2023-05-10T08:56:36.116Z,100.00
2023-05-10T08:59:02.836Z,98.30
2023-05-10T09:01:29.907Z,99.25
2023-05-10T09:03:58.953Z,92.91
2023-05-10T09:06:25.872Z,95.23
2023-05-10T09:08:53.548Z,95.47
2023-05-10T09:11:21.554Z,94.34
2023-05-10T09:13:51.894Z,97.41
2023-05-10T09:16:22.558Z,97.00
2023-05-10T09:18:57.251Z,91.07
2023-05-10T09:21:23.799Z,94.39
2023-05-10T09:23:51.179Z,91.27
2023-05-10T09:26:20.560Z,93.50
2023-05-10T09:28:55.518Z,93.38
2023-05-10T09:31:26.854Z,92.60
2023-05-10T09:33:54.754Z,91.33
2023-05-10T09:36:21.298Z,89.84
2023-05-10T09:38:53.801Z,90.83
2023-05-10T09:41:22.620Z,92.09
2023-05-10T09:43:49.358Z,89.30
2023-05-10T09:46:19.475Z,90.29
2023-05-10T09:48:48.674Z,89.63
2023-05-10T09:51:26.026Z,87.57
2023-05-10T09:54:19.548Z,84.76
2023-05-10T09:56:46.559Z,84.86
2023-05-10T09:59:14.022Z,85.24
2023-05-10T10:01:41.675Z,83.14
2023-05-10T10:04:12.529Z,87.34
2023-05-10T10:06:42.875Z,88.41
2023-05-10T10:09:10.286Z,88.68
2023-05-10T10:11:38.169Z,87.91
2023-05-10T10:14:05.964Z,87.98
2023-05-10T10:16:33.487Z,85.27
2023-05-10T10:19:00.465Z,81.68
2023-05-10T10:21:27.871Z,86.23
2023-05-10T10:23:57.003Z,83.98
2023-05-10T10:26:26.554Z,85.21
2023-05-10T10:29:11.431Z,83.86
2023-05-10T10:31:45.087Z,85.55
2023-05-10T10:34:36.003Z,84.44
2023-05-10T10:37:08.487Z,85.67
2023-05-10T10:39:37.720Z,84.07
2023-05-10T10:42:05.697Z,85.20
2023-05-10T10:44:34.629Z,87.16
2023-05-10T10:47:14.099Z,88.13
2023-05-10T10:49:45.123Z,88.49
2023-05-10T10:52:30.938Z,87.04
2023-05-10T10:55:14.079Z,86.82
2023-05-10T10:58:01.523Z,86.20
2023-05-10T11:00:37.446Z,84.07
2023-05-10T11:03:18.073Z,85.31
2023-05-10T11:05:51.282Z,83.25
2023-05-10T11:08:27.996Z,83.09
2023-05-10T11:11:01.011Z,82.28
2023-05-10T11:13:30.392Z,83.12
2023-05-10T11:16:00.507Z,82.53
2023-05-10T11:18:29.851Z,81.58
2023-05-10T11:21:01.407Z,80.54
2023-05-10T11:23:33.387Z,81.16
2023-05-10T11:26:02.185Z,77.50
2023-05-10T11:28:29.377Z,79.83
2023-05-10T11:33:47.828Z,80.20
2023-05-10T11:36:29.012Z,74.13
2023-05-10T11:39:01.317Z,78.40
2023-05-10T11:41:29.963Z,78.06
2023-05-10T11:43:59.117Z,77.44
2023-05-10T11:46:29.911Z,70.97
2023-05-10T11:49:05.321Z,73.86
2023-05-10T11:51:34.672Z,68.03
2023-05-10T11:54:01.309Z,76.55
2023-05-10T11:56:29.580Z,75.95
2023-05-10T11:58:58.864Z,76.47
2023-05-10T12:01:27.390Z,77.19
2023-05-10T12:03:56.189Z,78.00
2023-05-10T12:06:23.450Z,79.31
2023-05-10T12:08:54.976Z,78.72
2023-05-10T12:11:26.009Z,79.60
2023-05-10T12:13:52.744Z,78.50
2023-05-10T12:16:24.603Z,77.40
2023-05-10T12:18:56.900Z,80.27
2023-05-10T12:21:27.989Z,79.64
2023-05-10T12:24:01.046Z,78.87
2023-05-10T12:26:29.418Z,78.40
2023-05-10T12:28:56.679Z,78.64
2023-05-10T12:31:25.477Z,78.20
2023-05-10T12:33:51.979Z,76.82
2023-05-10T12:36:24.756Z,75.02
2023-05-10T12:38:54.575Z,76.19
2023-05-10T12:41:23.023Z,77.15
2023-05-10T12:43:49.480Z,77.55
2023-05-10T12:46:17.883Z,78.93
2023-05-10T12:48:45.558Z,77.60
2023-05-10T12:51:18.111Z,77.98
2023-05-10T12:53:49.602Z,78.07
2023-05-10T12:56:16.277Z,76.61
2023-05-10T12:58:49.120Z,77.11
2023-05-10T13:01:17.956Z,78.05
2023-05-10T13:03:44.862Z,78.04
2023-05-10T13:06:11.355Z,78.50
2023-05-10T13:08:39.556Z,78.35
2023-05-10T13:11:08.488Z,75.93
2023-05-10T13:13:35.005Z,74.17
2023-05-10T13:16:03.311Z,73.42
2023-05-10T13:18:29.831Z,75.29
2023-05-10T13:21:00.206Z,74.50
2023-05-10T13:23:28.452Z,74.88
2023-05-10T13:25:54.929Z,72.82
2023-05-10T13:28:21.401Z,72.04
2023-05-10T13:30:49.677Z,72.12
2023-05-10T13:33:16.244Z,71.80
2023-05-10T13:35:42.827Z,71.96
2023-05-10T13:38:11.476Z,72.10
2023-05-10T13:40:38.000Z,72.16
2023-05-10T13:43:04.459Z,71.93
2023-05-10T13:45:31.258Z,73.10
2023-05-10T13:47:58.379Z,71.48
2023-05-10T13:50:26.730Z,71.11
2023-05-10T13:52:53.401Z,69.96
2023-05-10T13:55:20.220Z,71.46
2023-05-10T13:57:46.926Z,70.75
2023-05-10T14:00:16.246Z,70.88
2023-05-10T14:02:43.068Z,70.93
2023-05-10T14:05:09.906Z,70.10
2023-05-10T14:07:36.456Z,70.67
2023-05-10T14:10:03.042Z,70.66
2023-05-10T14:12:30.088Z,69.51
2023-05-10T14:15:01.309Z,68.38
2023-05-10T14:17:27.948Z,69.42
2023-05-10T14:19:56.688Z,68.20
2023-05-10T14:22:23.896Z,67.65
2023-05-10T14:24:51.188Z,68.46
2023-05-10T14:27:21.458Z,68.18
2023-05-10T14:29:48.896Z,67.23
2023-05-10T14:32:15.380Z,65.72
2023-05-10T14:34:41.913Z,66.66
2023-05-10T14:37:14.970Z,67.42
2023-05-10T14:39:41.843Z,66.65
2023-05-10T14:42:08.448Z,66.28
2023-05-10T14:44:47.254Z,65.13
2023-05-10T14:47:15.689Z,64.99
2023-05-10T14:49:42.143Z,65.63
2023-05-10T14:52:12.170Z,65.40
2023-05-10T14:54:39.703Z,64.59
2023-05-10T14:57:06.447Z,63.91
2023-05-10T14:59:34.747Z,62.94
2023-05-10T15:02:05.267Z,65.25
2023-05-10T15:04:32.259Z,66.81
2023-05-10T15:07:00.396Z,67.08
2023-05-10T15:09:28.495Z,67.30
2023-05-10T15:11:55.861Z,67.02
2023-05-10T15:14:29.646Z,67.32
2023-05-10T15:16:56.180Z,67.63
2023-05-10T15:19:22.710Z,67.77
2023-05-10T15:21:49.426Z,67.02
2023-05-10T15:24:16.137Z,65.22
2023-05-10T15:26:42.622Z,64.20
2023-05-10T15:29:11.370Z,60.18
2023-05-10T15:31:37.909Z,61.49
2023-05-10T15:34:04.481Z,61.84
2023-05-10T15:36:34.485Z,63.05
2023-05-10T15:39:00.914Z,64.29
2023-05-10T15:41:27.823Z,65.14
2023-05-10T15:43:57.297Z,65.71
2023-05-10T15:46:23.892Z,65.87
2023-05-10T15:48:50.685Z,66.86
2023-05-10T15:51:19.319Z,66.97
2023-05-10T15:54:00.523Z,67.67
2023-05-10T15:56:38.794Z,67.18
2023-05-10T15:59:06.206Z,65.74
2023-05-10T16:01:33.245Z,64.72
2023-05-10T16:04:00.306Z,64.85
2023-05-10T16:06:27.191Z,64.94
2023-05-10T16:08:54.704Z,63.30
2023-05-10T16:11:23.395Z,63.41
2023-05-10T16:13:50.117Z,66.72
2023-05-10T16:16:16.870Z,67.97
2023-05-10T16:18:45.629Z,68.96
2023-05-10T16:21:16.096Z,69.90
2023-05-10T16:23:43.280Z,71.01
2023-05-10T16:26:11.508Z,72.10
2023-05-10T16:28:39.700Z,72.11
2023-05-10T16:31:06.444Z,72.32
2023-05-10T16:33:33.066Z,71.99
2023-05-10T16:35:59.525Z,73.11
2023-05-10T16:38:27.884Z,73.61
2023-05-10T16:40:54.613Z,73.72
2023-05-10T16:43:21.103Z,72.71
2023-05-10T16:45:47.579Z,73.34
2023-05-10T16:48:14.260Z,73.34
2023-05-10T16:50:44.406Z,73.95
2023-05-10T16:53:11.784Z,74.45
2023-05-10T16:55:40.450Z,75.17
2023-05-10T16:58:06.900Z,76.18
2023-05-10T17:00:33.740Z,77.09
2023-05-10T17:03:00.496Z,76.83
2023-05-10T17:05:27.102Z,78.05
2023-05-10T17:07:53.570Z,78.58
2023-05-10T17:10:22.288Z,80.83
2023-05-10T17:12:53.797Z,81.53
2023-05-10T17:15:21.032Z,78.70
2023-05-10T17:17:48.336Z,77.90
2023-05-10T17:20:18.396Z,77.90
2023-05-10T17:22:46.540Z,77.92
2023-05-10T17:25:19.940Z,75.80
2023-05-10T17:27:46.693Z,75.58
2023-05-10T17:30:13.422Z,75.54
2023-05-10T17:32:39.947Z,76.44
2023-05-10T17:35:06.902Z,76.34
2023-05-10T17:37:34.736Z,76.84
2023-05-10T17:40:01.602Z,77.27
2023-05-10T17:42:28.237Z,77.81
2023-05-10T17:44:54.829Z,78.74
2023-05-10T17:47:21.319Z,79.22
2023-05-10T17:49:48.032Z,79.50
2023-05-10T17:52:14.786Z,80.11
2023-05-10T17:54:41.280Z,80.10
2023-05-10T17:57:07.877Z,80.96
2023-05-10T17:59:34.365Z,81.44
2023-05-10T18:02:01.800Z,81.77
2023-05-10T18:04:28.393Z,81.61
2023-05-10T18:07:01.438Z,81.87
2023-05-10T18:09:30.176Z,82.45
2023-05-10T18:11:56.632Z,82.72
2023-05-10T18:14:38.946Z,83.14
2023-05-10T18:17:08.079Z,83.52
2023-05-10T18:19:34.877Z,83.89
2023-05-10T18:22:01.359Z,84.57
2023-05-10T18:24:38.377Z,85.23
2023-05-10T18:27:07.697Z,84.56
2023-05-10T18:29:34.267Z,85.91
2023-05-10T18:32:00.971Z,86.59
2023-05-10T18:34:27.495Z,86.43
2023-05-10T18:36:55.784Z,86.86
2023-05-10T18:39:22.287Z,86.41
2023-05-10T18:41:50.247Z,86.52
2023-05-10T18:44:16.876Z,86.80
2023-05-10T18:46:43.581Z,86.75
2023-05-10T18:49:10.207Z,86.67
2023-05-10T18:51:36.807Z,87.19
2023-05-10T18:54:03.545Z,86.97
2023-05-10T18:56:31.892Z,87.50
2023-05-10T18:59:00.205Z,86.84
2023-05-10T19:01:26.677Z,85.67
2023-05-10T19:03:53.234Z,86.39
2023-05-10T19:06:19.908Z,86.47
2023-05-10T19:08:48.286Z,87.16
2023-05-10T19:11:14.735Z,87.36
2023-05-10T19:13:41.398Z,87.98
2023-05-10T19:16:15.140Z,88.51
2023-05-10T19:18:44.098Z,88.87
2023-05-10T19:21:22.534Z,89.54
2023-05-10T19:23:51.293Z,89.86
2023-05-10T19:26:18.067Z,89.92
2023-05-10T19:28:45.093Z,89.70
2023-05-10T19:31:12.259Z,90.56
2023-05-10T19:33:40.571Z,90.64
2023-05-10T19:36:10.759Z,91.15
2023-05-10T19:38:37.525Z,91.38
2023-05-10T19:41:04.342Z,92.48
2023-05-10T19:43:34.552Z,92.02
2023-05-10T19:46:03.460Z,92.74
2023-05-10T19:48:30.116Z,92.56
2023-05-10T19:51:03.377Z,92.08
2023-05-10T19:53:30.659Z,92.05
2023-05-10T19:56:06.526Z,93.15
2023-05-10T19:58:33.903Z,92.76
2023-05-10T20:01:00.486Z,92.91
2023-05-10T20:03:30.353Z,92.88
2023-05-10T20:06:01.361Z,91.56
2023-05-10T20:08:27.922Z,91.60
2023-05-10T20:10:54.396Z,91.67
2023-05-10T20:13:20.880Z,91.01
2023-05-10T20:15:47.496Z,90.84
2023-05-10T20:18:15.766Z,91.03
2023-05-10T20:20:42.413Z,90.49
2023-05-10T20:23:08.922Z,91.82
2023-05-10T20:25:35.769Z,91.49
2023-05-10T20:28:02.320Z,91.83
2023-05-10T20:30:28.896Z,91.98
2023-05-10T20:32:55.474Z,92.37
2023-05-10T20:35:22.080Z,92.49
2023-05-10T20:37:48.680Z,93.05
2023-05-10T20:40:15.762Z,92.55
2023-05-10T20:42:42.413Z,93.01
2023-05-10T20:45:09.613Z,93.52
2023-05-10T20:47:36.504Z,93.25
2023-05-10T20:50:03.965Z,93.84
2023-05-10T20:52:30.488Z,93.73
2023-05-10T20:55:07.627Z,93.68
2023-05-10T20:57:34.752Z,94.28
2023-05-10T21:00:01.439Z,95.02
2023-05-10T21:02:30.104Z,94.80
2023-05-10T21:04:57.943Z,94.82
2023-05-10T21:07:25.150Z,94.57
2023-05-10T21:09:51.915Z,95.07
2023-05-10T21:12:18.467Z,95.22
2023-05-10T21:14:46.951Z,95.35
2023-05-10T21:17:21.964Z,94.86
2023-05-10T21:19:48.497Z,96.10
2023-05-10T21:22:15.263Z,95.73
2023-05-10T21:24:41.895Z,96.96
2023-05-10T21:27:09.083Z,96.41
2023-05-10T21:29:35.860Z,96.48
2023-05-10T21:32:02.840Z,96.84
2023-05-10T21:34:29.560Z,97.21
2023-05-10T21:36:56.031Z,98.01
2023-05-10T21:39:24.421Z,97.67
2023-05-10T21:41:53.177Z,97.45
2023-05-10T21:44:19.613Z,97.02
2023-05-10T21:46:48.405Z,97.54
2023-05-10T21:49:14.954Z,97.04
2023-05-10T21:51:41.377Z,97.70
2023-05-10T21:54:17.922Z,98.09
2023-05-10T21:56:45.307Z,98.34
2023-05-10T21:59:12.007Z,99.40
2023-05-10T22:01:38.810Z,100.00
2023-05-10T22:04:07.175Z,100.00
2023-05-10T22:06:33.639Z,100.00
2023-05-10T22:09:00.245Z,100.00
2023-05-10T22:11:27.423Z,100.00
2023-05-10T22:13:53.914Z,100.00
2023-05-10T22:16:25.072Z,100.00
2023-05-10T22:18:51.701Z,100.00
2023-05-10T22:21:18.223Z,100.00
2023-05-10T22:23:46.405Z,100.00
2023-05-10T22:26:13.170Z,100.00
2023-05-10T22:28:39.684Z,100.00
2023-05-10T22:31:11.601Z,100.00
2023-05-10T22:33:38.265Z,100.00
2023-05-10T22:36:05.261Z,100.00
2023-05-10T22:38:38.213Z,100.00
2023-05-10T22:41:04.715Z,100.00
2023-05-10T22:43:31.266Z,100.00
2023-05-10T22:45:58.028Z,100.00
2023-05-10T22:48:24.513Z,100.00
2023-05-10T22:50:53.039Z,100.00
2023-05-10T22:53:21.252Z,100.00
2023-05-10T22:55:47.870Z,100.00
2023-05-10T22:58:17.699Z,100.00
2023-05-10T23:00:46.165Z,100.00
2023-05-10T23:03:12.789Z,100.00
2023-05-10T23:05:39.310Z,100.00
2023-05-10T23:08:12.020Z,100.00
2023-05-10T23:10:39.168Z,100.00
2023-05-10T23:13:06.336Z,100.00
2023-05-10T23:15:33.442Z,100.00
2023-05-10T23:18:04.526Z,100.00
2023-05-10T23:20:43.039Z,100.00
2023-05-10T23:23:15.941Z,100.00
2023-05-10T23:25:42.432Z,100.00
2023-05-10T23:28:10.684Z,100.00
2023-05-10T23:30:37.196Z,100.00
2023-05-10T23:33:04.013Z,100.00
2023-05-10T23:35:35.268Z,100.00
2023-05-10T23:38:02.144Z,100.00
2023-05-10T23:40:28.727Z,100.00
2023-05-10T23:42:55.323Z,100.00
2023-05-10T23:45:22.061Z,100.00
2023-05-10T23:47:48.544Z,100.00
2023-05-10T23:50:17.009Z,100.00
2023-05-10T23:52:43.788Z,100.00
2023-05-10T23:55:11.016Z,100.00
2023-05-10T23:57:39.505Z,100.00
